Time;durP1;ratioP1;P1;durP2;ratioP2;P2;SDS_P1;SDS_P2;PMS_P1;PMS_P2;Temp;Humidity;BMP_temperature;BMP_pressure;BME280_temperature;BME280_humidity;BME280_pressure;Samples;Min_cycle;Max_cycle;Signal;HPM_P1;HPM_P2
2021/08/10 00:01:43;;;;;;;3.00;2.70;;;17.30;99.90;;;;;;5033784;28;20168;-86
2021/08/10 00:04:08;;;;;;;8.23;3.20;;;17.30;99.90;;;;;;5033731;28;20175;-86
2021/08/10 00:06:34;;;;;;;6.70;3.78;;;17.50;99.90;;;;;;5032393;28;20536;-86
2021/08/10 00:09:00;;;;;;;5.20;3.22;;;17.40;99.90;;;;;;5032717;28;20632;-87
2021/08/10 00:11:25;;;;;;;7.53;2.63;;;17.30;99.90;;;;;;5032332;28;20168;-87
2021/08/10 00:13:51;;;;;;;3.05;2.42;;;17.10;99.90;;;;;;5032559;28;20179;-87
2021/08/10 00:16:17;;;;;;;7.32;2.45;;;17.00;99.90;;;;;;5033450;28;20184;-86
2021/08/10 00:18:42;;;;;;;2.78;2.20;;;17.00;99.90;;;;;;5032246;28;20306;-85
2021/08/10 00:21:08;;;;;;;8.38;2.30;;;16.90;99.90;;;;;;5032869;28;20175;-85
2021/08/10 00:23:33;;;;;;;4.60;2.83;;;16.80;99.90;;;;;;5032394;28;20229;-86
2021/08/10 00:25:59;;;;;;;6.28;2.85;;;16.80;99.90;;;;;;5033244;28;20301;-84
2021/08/10 00:28:25;;;;;;;9.05;2.47;;;16.90;99.90;;;;;;5032476;28;20221;-85
2021/08/10 00:30:50;;;;;;;8.85;2.40;;;16.80;99.90;;;;;;5032105;28;20692;-87
2021/08/10 00:33:16;;;;;;;5.47;2.22;;;16.90;99.90;;;;;;5032177;28;20531;-87
2021/08/10 00:35:42;;;;;;;4.03;1.63;;;16.80;99.90;;;;;;5032779;28;20685;-84
2021/08/10 00:38:09;;;;;;;5.85;1.73;;;16.90;99.90;;;;;;5031898;28;20209;-86
2021/08/10 00:40:36;;;;;;;2.60;1.40;;;16.80;99.90;;;;;;5032305;28;20624;-87
2021/08/10 00:43:02;;;;;;;4.18;1.77;;;16.80;99.90;;;;;;5032140;28;20210;-85
2021/08/10 00:45:27;;;;;;;2.30;1.30;;;16.70;99.90;;;;;;5033066;28;20192;-87
2021/08/10 00:47:53;;;;;;;2.97;1.65;;;16.80;99.90;;;;;;5031965;28;20160;-86
2021/08/10 00:50:19;;;;;;;3.45;1.50;;;16.90;99.90;;;;;;5033467;28;20176;-86
2021/08/10 00:52:45;;;;;;;2.33;1.40;;;16.90;99.90;;;;;;5032291;28;20164;-87
2021/08/10 00:55:12;;;;;;;1.85;1.45;;;16.90;99.90;;;;;;5035882;28;20192;-86
2021/08/10 00:57:37;;;;;;;3.47;1.48;;;17.00;99.90;;;;;;5035781;28;20631;-85
2021/08/10 01:00:07;;;;;;;1.67;1.58;;;17.00;99.90;;;;;;5036934;28;20218;-86
2021/08/10 01:02:32;;;;;;;4.57;1.63;;;16.90;99.90;;;;;;5035885;28;20229;-85
2021/08/10 01:04:58;;;;;;;2.40;1.58;;;17.10;99.90;;;;;;5036614;28;20619;-85
2021/08/10 01:07:32;;;;;;;4.68;1.70;;;17.00;99.90;;;;;;5035830;28;20251;-85
2021/08/10 01:10:07;;;;;;;3.20;1.83;;;16.80;99.90;;;;;;5036587;28;20167;-85
2021/08/10 01:12:46;;;;;;;3.88;1.83;;;16.80;99.90;;;;;;5036150;28;20182;-84
2021/08/10 01:15:20;;;;;;;2.28;1.70;;;16.80;99.90;;;;;;5035704;28;20192;-84
2021/08/10 01:18:01;;;;;;;2.22;1.65;;;16.60;99.90;;;;;;5035500;28;20201;-85
2021/08/10 01:20:37;;;;;;;3.22;2.08;;;16.50;99.90;;;;;;5036652;28;20667;-81
2021/08/10 01:23:06;;;;;;;4.78;1.90;;;16.50;99.90;;;;;;5035690;28;20706;-84
2021/08/10 01:26:02;;;;;;;8.13;1.70;;;16.60;99.90;;;;;;5034273;28;20196;-81
2021/08/10 01:28:58;;;;;;;2.30;1.63;;;16.60;99.90;;;;;;5036068;28;20180;-85
2021/08/10 01:31:34;;;;;;;5.35;1.63;;;16.60;99.90;;;;;;5036729;28;20172;-84
2021/08/10 01:34:08;;;;;;;6.93;1.85;;;16.60;99.90;;;;;;5035333;28;20645;-85
2021/08/10 01:36:37;;;;;;;2.50;1.83;;;16.70;99.90;;;;;;5036247;28;20194;-85
2021/08/10 01:39:03;;;;;;;7.28;2.00;;;16.80;99.90;;;;;;5036049;28;20208;-84
2021/08/10 01:41:31;;;;;;;2.28;1.85;;;16.90;99.90;;;;;;5034893;28;20164;-85
2021/08/10 01:44:00;;;;;;;1.95;1.75;;;16.80;99.90;;;;;;5035043;28;20186;-85
2021/08/10 01:46:27;;;;;;;3.88;1.80;;;16.60;99.90;;;;;;5034882;28;20195;-85
2021/08/10 01:48:53;;;;;;;9.13;1.88;;;16.60;99.90;;;;;;5035840;28;20176;-84
2021/08/10 01:51:23;;;;;;;5.55;2.30;;;16.70;99.90;;;;;;5034823;28;20196;-85
2021/08/10 01:53:50;;;;;;;2.42;1.75;;;16.50;99.90;;;;;;5034722;28;20635;-85
2021/08/10 01:56:18;;;;;;;4.00;1.92;;;16.50;99.90;;;;;;5035137;28;20605;-84
2021/08/10 01:58:46;;;;;;;2.53;2.33;;;16.70;99.90;;;;;;5036179;28;20743;-85
2021/08/10 02:01:12;;;;;;;3.15;2.38;;;16.60;99.90;;;;;;5034767;28;20168;-84
2021/08/10 02:03:38;;;;;;;3.60;2.10;;;16.70;99.90;;;;;;5035404;28;20164;-81
2021/08/10 02:06:04;;;;;;;2.58;1.65;;;16.70;99.90;;;;;;5034671;28;20192;-85
2021/08/10 02:08:33;;;;;;;3.17;2.20;;;16.80;99.90;;;;;;5034786;28;20206;-85
2021/08/10 02:11:00;;;;;;;2.45;2.08;;;16.80;99.90;;;;;;5034695;28;20164;-86
2021/08/10 02:13:25;;;;;;;3.17;2.10;;;16.80;99.90;;;;;;5036006;28;20168;-85
2021/08/10 02:15:52;;;;;;;2.83;2.22;;;16.70;99.90;;;;;;5034415;28;20199;-85
2021/08/10 02:18:19;;;;;;;4.43;2.63;;;16.70;99.90;;;;;;5034422;28;20535;-85
2021/08/10 02:20:47;;;;;;;6.50;2.13;;;16.70;99.90;;;;;;5034358;28;20180;-84
2021/08/10 02:23:15;;;;;;;3.35;2.88;;;16.70;99.90;;;;;;5034306;28;20196;-86
2021/08/10 02:25:44;;;;;;;3.08;2.33;;;16.60;99.90;;;;;;5036401;28;20285;-85
2021/08/10 02:28:14;;;;;;;3.22;2.38;;;16.70;99.90;;;;;;5038088;28;20164;-85
2021/08/10 02:30:53;;;;;;;10.30;2.90;;;16.80;99.90;;;;;;5039628;28;20247;-82
2021/08/10 02:33:21;;;;;;;4.40;2.55;;;16.90;99.90;;;;;;5037738;28;20170;-85
2021/08/10 02:35:49;;;;;;;5.97;2.67;;;16.80;99.90;;;;;;5040026;28;20195;-85
2021/08/10 02:38:17;;;;;;;3.92;2.42;;;16.50;99.90;;;;;;5038611;28;20196;-83
2021/08/10 02:40:47;;;;;;;5.80;2.53;;;16.50;99.90;;;;;;5040461;28;20267;-84
2021/08/10 02:43:15;;;;;;;3.08;2.38;;;16.50;99.90;;;;;;5041282;28;20168;-84
2021/08/10 02:45:41;;;;;;;6.78;2.72;;;16.60;99.90;;;;;;5040492;28;20294;-85
2021/08/10 02:48:07;;;;;;;4.82;2.88;;;16.60;99.90;;;;;;5042032;28;20261;-85
2021/08/10 02:50:33;;;;;;;4.28;2.45;;;16.40;99.90;;;;;;5038926;28;20261;-85
2021/08/10 02:52:59;;;;;;;4.75;2.75;;;16.30;99.90;;;;;;5040183;28;20172;-85
2021/08/10 02:55:26;;;;;;;4.18;3.08;;;16.20;99.90;;;;;;5037930;28;20651;-85
2021/08/10 02:58:00;;;;;;;5.78;2.20;;;16.20;99.90;;;;;;5039606;28;20195;-84
2021/08/10 03:00:29;;;;;;;4.53;3.00;;;16.30;99.90;;;;;;5040223;28;20290;-83
2021/08/10 03:03:09;;;;;;;6.80;3.08;;;16.40;99.90;;;;;;5038838;28;20168;-85
2021/08/10 03:05:37;;;;;;;3.80;2.88;;;16.50;99.90;;;;;;5039451;28;20195;-86
2021/08/10 03:08:06;;;;;;;6.05;3.58;;;16.50;99.90;;;;;;5037491;28;20168;-84
2021/08/10 03:10:34;;;;;;;6.90;2.80;;;16.40;99.90;;;;;;5034606;28;20152;-84
2021/08/10 03:13:05;;;;;;;3.75;2.95;;;16.40;99.90;;;;;;5033296;28;20628;-85
2021/08/10 03:15:33;;;;;;;4.78;3.10;;;16.50;99.90;;;;;;5033668;28;20267;-85
2021/08/10 03:18:03;;;;;;;6.47;3.20;;;16.60;99.90;;;;;;5033278;28;20529;-85
2021/08/10 03:20:31;;;;;;;6.20;3.08;;;16.60;99.90;;;;;;5033496;28;20694;-82
2021/08/10 03:22:58;;;;;;;6.55;3.00;;;16.50;99.90;;;;;;5033303;28;20828;-85
2021/08/10 03:25:25;;;;;;;4.38;2.95;;;16.50;99.90;;;;;;5033080;28;20188;-85
2021/08/10 03:27:52;;;;;;;5.05;2.58;;;16.50;99.90;;;;;;5034277;28;20225;-85
2021/08/10 03:30:18;;;;;;;3.33;2.60;;;16.60;99.90;;;;;;5033114;28;20176;-85
2021/08/10 03:32:46;;;;;;;6.22;3.47;;;16.60;99.90;;;;;;5032850;28;20172;-85
2021/08/10 03:35:12;;;;;;;6.15;3.03;;;16.50;99.90;;;;;;5034301;28;20576;-86
2021/08/10 03:37:39;;;;;;;4.32;3.15;;;16.60;99.90;;;;;;5032760;28;20270;-86
2021/08/10 03:40:06;;;;;;;5.53;3.38;;;16.60;99.90;;;;;;5032736;28;20206;-85
2021/08/10 03:42:34;;;;;;;4.38;2.80;;;16.60;99.90;;;;;;5032840;28;20190;-84
2021/08/10 03:45:00;;;;;;;4.15;3.10;;;16.70;99.90;;;;;;5033664;28;20191;-85
2021/08/10 03:47:26;;;;;;;5.93;3.63;;;16.80;99.90;;;;;;5033577;28;20627;-85
2021/08/10 03:49:53;;;;;;;7.30;3.92;;;16.70;99.90;;;;;;5032587;28;20167;-85
2021/08/10 03:52:19;;;;;;;3.80;2.85;;;16.60;99.90;;;;;;5033739;28;20163;-86
2021/08/10 03:54:45;;;;;;;6.97;3.30;;;16.50;99.90;;;;;;5033778;28;20329;-85
2021/08/10 03:57:15;;;;;;;9.30;3.05;;;16.60;99.90;;;;;;5032626;28;20171;-84
2021/08/10 03:59:43;;;;;;;5.57;3.20;;;16.50;99.90;;;;;;5032512;28;20219;-84
2021/08/10 04:02:09;;;;;;;4.25;2.88;;;16.60;99.90;;;;;;5033826;28;20513;-85
2021/08/10 04:04:35;;;;;;;4.38;2.75;;;16.70;99.90;;;;;;5034011;28;20168;-85
2021/08/10 04:07:06;;;;;;;4.45;3.33;;;16.60;99.90;;;;;;5033723;28;20172;-85
2021/08/10 04:09:33;;;;;;;4.07;2.88;;;16.60;99.90;;;;;;5032732;28;20172;-86
2021/08/10 04:11:59;;;;;;;7.22;3.47;;;16.60;99.90;;;;;;5033629;28;20586;-86
2021/08/10 04:14:25;;;;;;;8.52;2.88;;;16.70;99.90;;;;;;5032383;28;20176;-83
2021/08/10 04:16:55;;;;;;;3.92;2.35;;;16.70;99.90;;;;;;5033648;28;20156;-86
2021/08/10 04:19:23;;;;;;;4.70;2.58;;;16.80;99.90;;;;;;5032324;28;20207;-85
2021/08/10 04:21:49;;;;;;;4.10;2.78;;;16.80;99.90;;;;;;5032411;28;20198;-86
2021/08/10 04:24:15;;;;;;;3.63;2.67;;;16.60;99.90;;;;;;5032443;28;20176;-86
2021/08/10 04:26:40;;;;;;;4.18;3.25;;;16.60;99.90;;;;;;5033291;28;20678;-85
2021/08/10 04:29:06;;;;;;;6.82;2.90;;;16.70;99.90;;;;;;5032594;28;20175;-86
2021/08/10 04:31:31;;;;;;;5.55;2.80;;;16.90;99.90;;;;;;5033637;28;20159;-85
2021/08/10 04:33:57;;;;;;;6.93;2.75;;;16.90;99.90;;;;;;5033316;28;20168;-84
2021/08/10 04:36:23;;;;;;;3.75;2.63;;;17.00;99.90;;;;;;5033354;28;20187;-85
2021/08/10 04:38:49;;;;;;;7.22;2.70;;;16.90;99.90;;;;;;5031931;28;20306;-84
2021/08/10 04:41:14;;;;;;;3.88;2.83;;;17.00;99.90;;;;;;5033378;28;20187;-85
2021/08/10 04:43:40;;;;;;;3.63;3.15;;;17.10;99.90;;;;;;5032163;28;20168;-84
2021/08/10 04:46:05;;;;;;;4.63;2.83;;;17.30;99.90;;;;;;5033485;28;20647;-84
2021/08/10 04:48:31;;;;;;;2.72;2.28;;;17.10;99.90;;;;;;5032121;28;20168;-86
2021/08/10 04:50:57;;;;;;;3.28;2.60;;;17.20;99.90;;;;;;5032861;28;20183;-85
2021/08/10 04:53:22;;;;;;;3.90;2.40;;;17.20;99.90;;;;;;5033384;28;20164;-85
2021/08/10 04:55:49;;;;;;;7.10;3.30;;;17.20;99.90;;;;;;5032127;28;20660;-85
2021/08/10 04:58:14;;;;;;;5.28;2.92;;;17.10;99.90;;;;;;5031907;28;20160;-85
2021/08/10 05:00:40;;;;;;;4.13;2.70;;;17.10;99.90;;;;;;5033205;28;20214;-84
2021/08/10 05:03:06;;;;;;;4.13;2.55;;;17.20;99.90;;;;;;5032259;28;20754;-82
2021/08/10 05:05:32;;;;;;;5.80;2.60;;;17.30;99.90;;;;;;5032828;28;20188;-85
2021/08/10 05:07:57;;;;;;;3.53;3.15;;;17.40;99.90;;;;;;5031837;28;20164;-85
2021/08/10 05:10:23;;;;;;;3.70;2.70;;;17.40;99.90;;;;;;5033269;28;20176;-86
2021/08/10 05:12:49;;;;;;;7.50;3.20;;;17.50;99.90;;;;;;5033022;28;20536;-85
2021/08/10 05:15:14;;;;;;;14.18;2.67;;;17.40;99.90;;;;;;5032346;28;20184;-84
2021/08/10 05:17:40;;;;;;;3.08;2.20;;;17.40;99.90;;;;;;5033263;28;20655;-84
2021/08/10 05:20:06;;;;;;;5.15;2.50;;;17.40;99.90;;;;;;5033143;28;20210;-85
2021/08/10 05:22:32;;;;;;;5.35;2.67;;;17.40;99.90;;;;;;5031720;28;20175;-85
2021/08/10 05:24:57;;;;;;;7.65;2.90;;;17.30;99.90;;;;;;5032631;28;20188;-83
2021/08/10 05:27:23;;;;;;;5.82;2.60;;;17.40;99.90;;;;;;5031794;28;20160;-86
2021/08/10 05:29:49;;;;;;;3.83;2.60;;;17.50;99.90;;;;;;5031741;28;20176;-86
2021/08/10 05:32:14;;;;;;;7.50;2.67;;;17.30;99.90;;;;;;5032689;28;20171;-86
2021/08/10 05:34:40;;;;;;;6.53;3.22;;;17.30;99.90;;;;;;5032792;28;20164;-86
2021/08/10 05:37:07;;;;;;;4.90;2.65;;;17.30;99.90;;;;;;5032653;28;20172;-85
2021/08/10 05:39:32;;;;;;;8.95;2.13;;;17.30;99.90;;;;;;5033041;28;20226;-85
2021/08/10 05:41:58;;;;;;;6.05;2.92;;;17.30;99.90;;;;;;5035067;28;20164;-85
2021/08/10 05:44:24;;;;;;;16.30;3.47;;;17.30;99.90;;;;;;5035053;28;20246;-85
2021/08/10 05:46:50;;;;;;;10.50;2.67;;;17.30;99.90;;;;;;5034892;28;20307;-84
2021/08/10 05:49:15;;;;;;;4.32;2.72;;;17.50;99.90;;;;;;5034874;28;20168;-86
2021/08/10 05:51:41;;;;;;;3.10;2.55;;;17.70;99.90;;;;;;5036046;28;20306;-85
2021/08/10 05:54:07;;;;;;;3.30;2.45;;;17.90;99.90;;;;;;5036898;28;20168;-84
2021/08/10 05:56:33;;;;;;;3.70;2.60;;;17.50;99.90;;;;;;5035886;28;20184;-84
2021/08/10 05:58:59;;;;;;;5.53;2.92;;;17.40;99.90;;;;;;5034521;28;20582;-86
2021/08/10 06:01:24;;;;;;;5.82;3.45;;;17.40;99.90;;;;;;5035808;28;20178;-84
2021/08/10 06:03:50;;;;;;;10.48;3.20;;;17.50;99.90;;;;;;5035937;28;20184;-83
2021/08/10 06:06:16;;;;;;;6.03;3.10;;;17.40;99.90;;;;;;5035466;28;20654;-83
2021/08/10 06:08:42;;;;;;;3.60;2.83;;;17.40;99.90;;;;;;5034652;28;20179;-82
2021/08/10 06:11:07;;;;;;;6.90;3.30;;;17.30;99.90;;;;;;5034957;28;20168;-82
2021/08/10 06:13:36;;;;;;;11.65;3.58;;;17.40;99.90;;;;;;5033767;28;20199;-83
2021/08/10 06:16:02;;;;;;;10.15;2.97;;;17.30;99.90;;;;;;5033287;28;20196;-84
2021/08/10 06:18:28;;;;;;;5.75;2.80;;;17.50;99.90;;;;;;5034209;28;20539;-84
2021/08/10 06:20:53;;;;;;;8.20;2.75;;;17.70;99.90;;;;;;5035359;28;20176;-85
2021/08/10 06:23:19;;;;;;;7.18;2.58;;;17.80;99.90;;;;;;5034938;28;20172;-83
2021/08/10 06:25:45;;;;;;;7.82;2.75;;;17.90;99.90;;;;;;5035009;28;20254;-84
2021/08/10 06:28:10;;;;;;;3.83;2.42;;;18.00;99.90;;;;;;5034208;28;20247;-80
2021/08/10 06:30:36;;;;;;;6.40;2.55;;;18.10;99.90;;;;;;5034883;28;20522;-85
2021/08/10 06:33:01;;;;;;;5.63;2.40;;;18.20;99.90;;;;;;5034167;28;20255;-83
2021/08/10 06:35:27;;;;;;;4.38;2.35;;;18.10;99.90;;;;;;5033499;28;20211;-84
2021/08/10 06:37:53;;;;;;;4.43;2.35;;;18.20;99.90;;;;;;5034645;28;20191;-85
2021/08/10 06:40:19;;;;;;;7.07;3.17;;;18.10;99.90;;;;;;5033115;28;20207;-82
2021/08/10 06:42:44;;;;;;;8.73;2.42;;;18.20;99.90;;;;;;5033308;28;20179;-81
2021/08/10 06:45:11;;;;;;;5.53;2.67;;;18.50;99.90;;;;;;5033519;28;20207;-84
2021/08/10 06:47:36;;;;;;;3.72;3.05;;;18.50;99.90;;;;;;5032614;28;20707;-81
2021/08/10 06:50:02;;;;;;;5.40;2.72;;;18.40;99.90;;;;;;5031303;28;20258;-84
2021/08/10 06:52:28;;;;;;;4.07;2.67;;;18.50;99.90;;;;;;5032249;28;20209;-83
2021/08/10 06:54:53;;;;;;;8.40;3.45;;;18.70;99.90;;;;;;5032993;28;20269;-86
2021/08/10 06:57:19;;;;;;;9.00;2.85;;;18.70;99.90;;;;;;5034646;28;20187;-85
2021/08/10 06:59:45;;;;;;;7.38;3.05;;;18.70;99.90;;;;;;5033521;28;20254;-84
2021/08/10 07:02:10;;;;;;;3.40;2.72;;;18.50;99.90;;;;;;5035453;28;20178;-82
2021/08/10 07:04:36;;;;;;;5.03;2.45;;;18.50;99.90;;;;;;5034467;28;20160;-82
2021/08/10 07:07:03;;;;;;;5.00;2.53;;;18.80;99.90;;;;;;5036566;28;20216;-88
2021/08/10 07:09:29;;;;;;;6.47;2.42;;;18.80;99.90;;;;;;5032521;28;20259;-82
2021/08/10 07:11:55;;;;;;;4.82;2.45;;;19.00;99.90;;;;;;5032096;28;20644;-82
2021/08/10 07:14:21;;;;;;;8.27;3.03;;;19.10;99.90;;;;;;5031417;28;20168;-82
2021/08/10 07:16:46;;;;;;;6.55;3.33;;;18.90;99.90;;;;;;5032936;28;20571;-81
2021/08/10 07:19:13;;;;;;;4.55;2.65;;;18.90;99.90;;;;;;5033441;28;20206;-81
2021/08/10 07:21:39;;;;;;;8.10;3.45;;;19.20;99.90;;;;;;5032588;28;20226;-83
2021/08/10 07:24:05;;;;;;;5.32;2.28;;;19.40;99.90;;;;;;5031945;28;20221;-81
2021/08/10 07:26:32;;;;;;;5.32;2.20;;;19.60;99.90;;;;;;5031919;28;20580;-82
2021/08/10 07:28:58;;;;;;;3.72;2.58;;;19.70;99.90;;;;;;5033559;28;20164;-83
2021/08/10 07:31:24;;;;;;;8.63;2.60;;;19.50;99.90;;;;;;5033392;28;20164;-81
2021/08/10 07:33:50;;;;;;;4.32;2.75;;;19.40;99.90;;;;;;5035073;28;20164;-85
2021/08/10 07:36:16;;;;;;;3.40;1.88;;;19.60;99.90;;;;;;5034025;28;20176;-80
2021/08/10 07:38:42;;;;;;;6.90;2.75;;;20.10;99.90;;;;;;5033189;28;20187;-83
2021/08/10 07:41:08;;;;;;;2.58;2.38;;;20.20;99.90;;;;;;5032084;28;20172;-81
2021/08/10 07:43:34;;;;;;;4.78;2.25;;;20.20;99.90;;;;;;5031346;28;20176;-80
2021/08/10 07:45:59;;;;;;;5.15;2.47;;;20.30;99.90;;;;;;5031767;28;20214;-82
2021/08/10 07:48:25;;;;;;;3.05;2.70;;;20.40;99.90;;;;;;5032096;28;20183;-81
2021/08/10 07:50:51;;;;;;;4.68;2.40;;;20.40;99.90;;;;;;5035396;28;20184;-88
2021/08/10 07:53:20;;;;;;;3.85;2.50;;;20.30;99.90;;;;;;5035576;28;20194;-90
2021/08/10 07:55:46;;;;;;;2.80;2.15;;;20.20;99.90;;;;;;5034170;28;20202;-89
2021/08/10 07:58:12;;;;;;;3.58;2.25;;;20.30;99.90;;;;;;5034443;28;20164;-88
2021/08/10 08:00:37;;;;;;;5.65;2.58;;;20.30;99.90;;;;;;5034986;28;20199;-88
2021/08/10 08:03:03;;;;;;;4.78;2.30;;;20.30;99.90;;;;;;5033737;28;20168;-87
2021/08/10 08:05:29;;;;;;;2.72;2.50;;;20.50;99.90;;;;;;5034625;28;20195;-88
2021/08/10 08:07:54;;;;;;;7.50;2.47;;;20.50;99.90;;;;;;5035056;28;20589;-88
2021/08/10 08:10:20;;;;;;;3.58;2.58;;;20.50;99.90;;;;;;5034059;28;20164;-88
2021/08/10 08:12:46;;;;;;;2.67;2.22;;;20.70;99.90;;;;;;5034092;28;20168;-86
2021/08/10 08:15:12;;;;;;;4.90;2.00;;;21.00;99.90;;;;;;5033671;28;20643;-87
2021/08/10 08:17:37;;;;;;;5.00;2.25;;;21.50;99.90;;;;;;5033575;28;20156;-86
2021/08/10 08:20:04;;;;;;;2.97;2.00;;;21.90;99.90;;;;;;5033280;28;20357;-88
2021/08/10 08:22:29;;;;;;;4.18;2.17;;;22.10;99.90;;;;;;5032848;28;20635;-87
2021/08/10 08:24:55;;;;;;;4.40;2.67;;;22.50;99.90;;;;;;5032885;28;20188;-86
2021/08/10 08:27:21;;;;;;;2.90;2.20;;;22.80;99.90;;;;;;5033271;28;20195;-89
2021/08/10 08:29:46;;;;;;;4.25;2.90;;;22.60;99.90;;;;;;5032906;28;20222;-89
2021/08/10 08:32:12;;;;;;;4.70;2.33;;;22.70;99.90;;;;;;5033656;28;20164;-90
2021/08/10 08:34:38;;;;;;;2.78;2.47;;;22.70;99.90;;;;;;5033062;28;20180;-88
2021/08/10 08:37:04;;;;;;;4.63;2.08;;;22.70;99.90;;;;;;5033161;28;20164;-89
2021/08/10 08:39:30;;;;;;;3.65;1.70;;;22.80;99.90;;;;;;5033425;28;20218;-89
2021/08/10 08:42:01;;;;;;;3.42;2.30;;;22.90;99.90;;;;;;5033510;28;20688;-88
2021/08/10 08:44:34;;;;;;;5.93;1.85;;;22.60;99.90;;;;;;5033940;28;20175;-88
2021/08/10 08:47:03;;;;;;;2.75;2.10;;;22.50;99.90;;;;;;5033206;28;20171;-86
2021/08/10 08:49:31;;;;;;;9.48;2.78;;;22.50;99.90;;;;;;5031561;28;20236;-87
2021/08/10 08:52:03;;;;;;;4.93;2.70;;;22.50;99.90;;;;;;5029882;28;20722;-80
2021/08/10 08:54:31;;;;;;;4.60;2.40;;;22.70;99.90;;;;;;5031283;28;20183;-80
2021/08/10 08:56:56;;;;;;;2.65;2.00;;;23.00;99.90;;;;;;5032512;28;20258;-80
2021/08/10 08:59:22;;;;;;;6.05;2.00;;;22.70;99.90;;;;;;5030732;28;20375;-80
2021/08/10 09:01:52;;;;;;;2.25;1.55;;;22.60;99.90;;;;;;5033000;28;20255;-80
2021/08/10 09:04:19;;;;;;;3.70;2.20;;;22.90;99.90;;;;;;5030943;28;20551;-79
2021/08/10 09:06:45;;;;;;;2.35;1.88;;;23.10;99.90;;;;;;5032362;28;20191;-80
2021/08/10 09:09:24;;;;;;;2.20;2.00;;;23.40;99.90;;;;;;5032185;28;20222;-80
2021/08/10 09:11:55;;;;;;;3.17;1.55;;;23.70;99.90;;;;;;5031018;28;20168;-82
2021/08/10 09:14:23;;;;;;;4.20;1.65;;;23.90;99.90;;;;;;5032267;28;20262;-80
2021/08/10 09:17:05;;;;;;;4.07;2.03;;;23.90;99.90;;;;;;5036007;28;20191;-80
2021/08/10 09:19:47;;;;;;;6.32;2.40;;;23.80;99.90;;;;;;5035011;28;20310;-81
2021/08/10 09:22:25;;;;;;;5.30;1.85;;;23.30;99.90;;;;;;5036286;28;20247;-81
2021/08/10 09:25:00;;;;;;;4.93;2.03;;;23.30;99.90;;;;;;5034632;28;20195;-80
2021/08/10 09:27:38;;;;;;;4.90;2.00;;;23.70;99.90;;;;;;5036138;28;20631;-81
2021/08/10 09:30:26;;;;;;;2.15;1.60;;;24.10;99.90;;;;;;5035933;28;20171;-81
2021/08/10 09:32:51;;;;;;;2.47;1.83;;;24.30;99.90;;;;;;5035760;28;20175;-79
2021/08/10 09:35:19;;;;;;;3.35;2.42;;;24.10;99.90;;;;;;5035623;28;20196;-80
2021/08/10 09:38:11;;;;;;;4.07;1.92;;;24.10;99.90;;;;;;5036356;28;20172;-89
2021/08/10 09:40:38;;;;;;;3.00;2.00;;;23.60;99.90;;;;;;5035009;28;20207;-90
2021/08/10 09:43:19;;;;;;;3.05;2.40;;;23.30;99.90;;;;;;5036492;28;20225;-91
2021/08/10 09:45:45;;;;;;;3.42;1.88;;;22.90;99.90;;;;;;5036512;28;20241;-90
2021/08/10 09:48:17;;;;;;;2.80;1.55;;;22.70;99.90;;;;;;5036460;28;20171;-89
2021/08/10 09:50:44;;;;;;;2.58;2.00;;;22.70;99.90;;;;;;5036857;28;20168;-86
2021/08/10 09:53:17;;;;;;;2.67;1.77;;;22.70;99.90;;;;;;5036384;28;20164;-88
2021/08/10 09:55:56;;;;;;;4.57;1.98;;;22.50;99.90;;;;;;5036542;28;20183;-91
2021/08/10 09:58:22;;;;;;;2.35;1.70;;;22.70;99.90;;;;;;5037535;28;20516;-89
2021/08/10 10:00:50;;;;;;;4.05;1.55;;;22.70;99.90;;;;;;5036252;28;20204;-87
2021/08/10 10:03:20;;;;;;;1.60;1.50;;;23.10;99.90;;;;;;5036646;28;20222;-90
2021/08/10 10:05:47;;;;;;;2.30;1.45;;;23.10;99.90;;;;;;5036716;28;20195;-91
2021/08/10 10:08:20;;;;;;;1.75;1.60;;;23.00;99.90;;;;;;5036114;28;20259;-79
2021/08/10 10:10:48;;;;;;;1.85;1.65;;;23.10;99.90;;;;;;5034267;28;20176;-82
2021/08/10 10:13:18;;;;;;;1.50;1.40;;;23.00;99.90;;;;;;5034888;28;20183;-82
2021/08/10 10:15:45;;;;;;;1.50;1.40;;;22.80;99.90;;;;;;5035431;28;20261;-85
2021/08/10 10:18:13;;;;;;;5.15;1.80;;;22.60;99.90;;;;;;5030259;28;20168;-80
2021/08/10 10:20:42;;;;;;;2.25;1.40;;;22.40;99.90;;;;;;5009565;28;20247;-84
2021/08/10 10:23:12;;;;;;;2.25;1.77;;;22.20;99.90;;;;;;5001589;28;20216;-91
2021/08/10 10:25:37;;;;;;;3.80;1.77;;;22.10;99.90;;;;;;4995742;28;20185;-88
2021/08/10 10:28:03;;;;;;;3.60;2.08;;;21.90;99.90;;;;;;5012538;28;20256;-91
2021/08/10 10:30:29;;;;;;;7.90;2.10;;;21.90;99.90;;;;;;5015117;28;20165;-84
2021/08/10 10:32:56;;;;;;;11.93;2.33;;;22.10;99.90;;;;;;5015762;28;20169;-90
2021/08/10 10:35:22;;;;;;;3.08;1.73;;;22.10;99.90;;;;;;5016019;28;20231;-92
2021/08/10 10:37:50;;;;;;;1.98;1.80;;;22.30;99.90;;;;;;5015942;28;20223;-87
2021/08/10 10:40:21;;;;;;;3.53;2.45;;;22.50;99.90;;;;;;5015519;28;20212;-88
2021/08/10 10:42:50;;;;;;;10.13;1.88;;;22.40;99.90;;;;;;5015235;28;20176;-81
2021/08/10 10:45:36;;;;;;;2.58;1.90;;;22.20;99.90;;;;;;5014625;28;20779;-82
2021/08/10 10:48:21;;;;;;;1.95;1.80;;;21.60;99.90;;;;;;5014071;28;20183;-84
2021/08/10 10:51:13;;;;;;;2.80;2.20;;;21.60;99.90;;;;;;5013218;28;20172;-89
2021/08/10 10:53:43;;;;;;;9.65;2.35;;;21.60;99.90;;;;;;5013731;28;20169;-87
2021/08/10 10:56:28;;;;;;;5.32;2.35;;;21.80;99.90;;;;;;5014247;28;20725;-89
2021/08/10 10:58:54;;;;;;;5.47;2.15;;;22.10;99.90;;;;;;5015056;28;20632;-89
2021/08/10 11:01:29;;;;;;;8.07;2.78;;;22.30;99.90;;;;;;5015476;28;20179;-87
2021/08/10 11:04:07;;;;;;;8.10;2.40;;;22.40;99.90;;;;;;5014761;28;20169;-85
2021/08/10 11:06:34;;;;;;;7.93;2.28;;;22.40;99.90;;;;;;5014568;28;20597;-87
2021/08/10 11:09:01;;;;;;;3.13;2.25;;;22.10;99.90;;;;;;5015004;28;20215;-86
2021/08/10 11:11:45;;;;;;;5.00;2.10;;;22.00;99.90;;;;;;5015261;28;20165;-90
2021/08/10 11:14:39;;;;;;;5.75;2.72;;;22.20;99.90;;;;;;5015228;28;20200;-89
2021/08/10 11:17:13;;;;;;;2.53;2.00;;;22.50;99.90;;;;;;5015165;28;20251;-91
2021/08/10 11:19:45;;;;;;;6.25;2.05;;;22.60;99.90;;;;;;5013554;28;20215;-86
2021/08/10 11:22:16;;;;;;;3.67;2.30;;;22.70;99.90;;;;;;5014137;28;20161;-89
2021/08/10 11:24:43;;;;;;;3.72;2.05;;;22.80;99.90;;;;;;5014978;28;20214;-91
2021/08/10 11:27:33;;;;;;;2.17;1.85;;;22.70;99.90;;;;;;5014613;28;20175;-79
2021/08/10 11:30:01;;;;;;;3.65;2.25;;;22.50;99.90;;;;;;5013849;28;20261;-84
2021/08/10 11:32:34;;;;;;;5.95;3.17;;;22.00;99.90;;;;;;5013694;28;20176;-82
2021/08/10 11:35:32;;;;;;;4.95;2.83;;;21.30;99.90;;;;;;5013307;28;20207;-80
2021/08/10 11:38:12;;;;;;;4.22;2.47;;;20.60;99.90;;;;;;5011257;28;20190;-79
2021/08/10 11:40:53;;;;;;;3.67;1.83;;;20.50;99.90;;;;;;5012469;28;20239;-81
2021/08/10 11:43:33;;;;;;;7.25;1.92;;;20.80;99.90;;;;;;5012999;28;20190;-80
2021/08/10 11:46:00;;;;;;;2.05;1.90;;;21.00;99.90;;;;;;5011850;28;20203;-80
2021/08/10 11:48:25;;;;;;;2.03;1.85;;;21.20;99.90;;;;;;5015527;28;20164;-92
2021/08/10 11:50:51;;;;;;;2.35;2.13;;;21.30;99.90;;;;;;5015874;28;20191;-91
2021/08/10 11:53:31;;;;;;;2.85;2.20;;;21.50;99.90;;;;;;5015562;28;20248;-87
2021/08/10 11:55:56;;;;;;;2.60;1.95;;;21.60;99.90;;;;;;5015628;28;20196;-93
2021/08/10 11:58:42;;;;;;;1.88;1.73;;;21.80;99.90;;;;;;5014559;28;20247;-88
2021/08/10 12:01:08;;;;;;;3.15;1.90;;;21.60;99.90;;;;;;5015222;28;20180;-88
2021/08/10 12:03:33;;;;;;;2.15;1.95;;;21.80;99.90;;;;;;5013621;28;20161;-91
2021/08/10 12:05:59;;;;;;;3.72;1.75;;;22.20;99.90;;;;;;5013184;28;20223;-88
2021/08/10 12:08:25;;;;;;;4.25;2.25;;;22.50;99.90;;;;;;5013813;28;20168;-92
2021/08/10 12:10:51;;;;;;;4.40;1.95;;;22.50;99.90;;;;;;5014118;28;20168;-92
2021/08/10 12:13:20;;;;;;;5.22;2.05;;;22.70;99.90;;;;;;5013812;28;20165;-91
2021/08/10 12:15:46;;;;;;;4.88;2.22;;;22.60;99.90;;;;;;5014193;28;20181;-92
2021/08/10 12:18:16;;;;;;;5.97;2.65;;;22.60;99.90;;;;;;5014748;28;20655;-90
2021/08/10 12:20:52;;;;;;;2.38;2.17;;;22.40;99.90;;;;;;5014532;28;20239;-81
2021/08/10 12:23:18;;;;;;;5.15;2.75;;;22.50;99.90;;;;;;5013232;28;20214;-88
2021/08/10 12:25:44;;;;;;;8.38;3.78;;;22.70;99.90;;;;;;5013021;28;20192;-92
2021/08/10 12:28:11;;;;;;;6.20;2.30;;;22.90;99.90;;;;;;5014744;28;20640;-92
2021/08/10 12:30:38;;;;;;;3.63;2.25;;;22.70;99.90;;;;;;5014078;28;20156;-93
2021/08/10 12:33:14;;;;;;;10.60;2.63;;;23.10;99.90;;;;;;5012931;28;20172;-83
2021/08/10 12:36:03;;;;;;;4.40;2.65;;;23.60;99.90;;;;;;5014716;28;20279;-92
2021/08/10 12:38:30;;;;;;;3.47;2.63;;;24.30;99.90;;;;;;5014255;28;20235;-91
2021/08/10 12:40:56;;;;;;;2.88;2.42;;;24.80;99.90;;;;;;5014625;28;20211;-87
2021/08/10 12:43:23;;;;;;;5.07;2.08;;;25.20;99.90;;;;;;5014647;28;20163;-93
2021/08/10 12:45:49;;;;;;;5.15;1.98;;;25.20;99.90;;;;;;5013079;28;20243;-92
2021/08/10 12:48:33;;;;;;;2.80;2.00;;;25.30;99.90;;;;;;5016138;28;20168;-91
2021/08/10 12:51:01;;;;;;;3.63;2.22;;;24.90;99.90;;;;;;5018106;28;20196;-92
2021/08/10 12:53:29;;;;;;;2.85;2.00;;;25.10;99.90;;;;;;5017102;28;20200;-93